CheckWX is a tool to help pilots better visualize weather data.  It is not intended as a substitute for an official pre-flight weather briefing.

21:39:17 UTC

EPWA METAR
Warsaw Chopin Airport
Warsaw, Poland
Current

39 mins ago

EPWA 232100Z 32008KT 9999 BKN012 15/14 Q1013 NOSIG
Observed
May-23 @ 21:00 UTC
Wind
  • 320° at 8 KTS
Visibility
10,000+ meters
Flight Rules
MVFR
Cloud Levels
  • Broken at 1,200' AGL
Temperature
15°C / 59°F
Dewpoint
14°C / 57°F
Humidity
94%
Altimeter
29.91" Hg
Pressure
1012.92 hPa
Previous

1 hour ago

EPWA 232030Z 31007KT 9999 SCT016 BKN026 15/14 Q1013 TEMPO BKN015
Observed
May-23 @ 20:30 UTC
Wind
  • 310° at 7 KTS
Visibility
10,000+ meters
Flight Rules
MVFR
Cloud Levels
  • Scattered at 1,600' AGL
  • Broken at 2,600' AGL
Temperature
15°C / 59°F
Dewpoint
14°C / 57°F
Humidity
94%
Altimeter
29.91" Hg
Pressure
1012.92 hPa
Previous

3 hours ago

EPWA 231900Z 31007KT 9999 FEW014 BKN019 15/14 Q1012 NOSIG
Observed
May-23 @ 19:00 UTC
Wind
  • 310° at 7 KTS
Visibility
10,000+ meters
Flight Rules
MVFR
Cloud Levels
  • Few at 1,400' AGL
  • Broken at 1,900' AGL
Temperature
15°C / 59°F
Dewpoint
14°C / 57°F
Humidity
94%
Altimeter
29.88" Hg
Pressure
1011.92 hPa